Sharpsburg, Illinois
Current Conditions -  °F | °C
As of 9:55 AM on Sunday 23 Nov 2014 (Local Time) from KTAZ Reporting Station
Overcast Overcast  
Wind Chill: 52°   Ceiling: 1500
Heat Index: 52°   Visibility: 10mi
Dew Point: 46°   Wind: 12mph
Humidity: 82%   Direction: 150°SSE
Pressure: 29.68"   Gusts: NA
Location:  39.5521°N, 89.3216°W
Report Text: KTAZ 231555Z AUTO 15010KT 10SM OVC015 11/08 A2968 RMK AO2
Loading
Personal Weather Stations






























Interactive Weather Map New forecast layout! Learn more

10-Day Weather Forecast

Advertisements
Track Severe Weather on mobile